sim
Sign-in with your pilot id or email,
or register
Callsign
Passwort

Schedule Details

Flight Number: DLH2520 (3)
Departure: Munich Airport (EDDM) at 12:15
Arrival: Glasgow International Airport (EGPF) at 14:40
Route: Lufthansa Passenger Schedule. Enter filed route here before submitting Pirep.

Weather Information
Getting current METAR information for EDDM 220120Z 03001KT 4000 0700N R08L/0400D R08R/1900D BCFG NSC 08/08 Q1015 TEMPO 2500
Getting current METAR information for EGPF 220120Z AUTO 20005KT 9999 OVC032 13/10 Q1010

Schedule Frequency

Route Map